RCGM weather

CLOSED Taoyuan Air Base
Taoyuan City, Taoyuan County, Taiwan

Public forecast

Using degrees Celsius for public forecast. Weather courtesy of forecast.io.

Closest aviation weather report (METAR) to Taoyuan Air Base

Closest report is Taiwan Taoyuan International Airport, 1.4 nm (2.6 km) NNW. Retrieved 2019/10/16 06:30 UTC (0 seconds ago):

RCTP 160630Z 05015KT 010V070 9999 VCSH FEW012 BKN018 BKN045 24/20 Q1017 NOSIG RMK A3005

Closest aviation forecast (TAF) to Taoyuan Air Base

Closest forecast is Taiwan Taoyuan International Airport, 1.4 nm (2.6 km) NNW. Retrieved 2019/10/16 06:00 UTC (20 minutes ago):

TAF RCTP 160500Z 1606/1712 06017KT 9999 FEW016 BKN032 TEMPO 1612/1618 5000 RA FEW010 BKN022 TEMPO 1618/1624 05012KT 5000 RA FEW008 BKN017 TEMPO 1700/1706 04023KT 5000 RA FEW008 BKN018